Time;durP1;ratioP1;P1;durP2;ratioP2;P2;SDS_P1;SDS_P2;PMS_P1;PMS_P2;Temp;Humidity;BMP_temperature;BMP_pressure;BME280_temperature;BME280_humidity;BME280_pressure;Samples;Min_cycle;Max_cycle;Signal;HPM_P1;HPM_P2
2023/04/09 00:00:09;;;;;;;;;;;;;;;10.08;67.64;98686.53;5034058;28;19994;-59
2023/04/09 00:02:35;;;;;;;;;;;;;;;10.00;67.99;98689.84;5038339;28;20338;-60
2023/04/09 00:05:01;;;;;;;;;;;;;;;9.92;67.99;98684.50;5022063;28;19924;-60
2023/04/09 00:07:26;;;;;;;;;;;;;;;9.86;68.58;98684.25;5024009;28;19917;-59
2023/04/09 00:09:52;;;;;;;;;;;;;;;9.82;68.68;98686.31;5038801;28;20056;-61
2023/04/09 00:12:17;;;;;;;;;;;;;;;9.98;68.12;98686.56;5013983;28;20012;-61
2023/04/09 00:14:45;;;;;;;;;;;;;;;9.91;68.65;98688.06;5038127;28;19920;-60
2023/04/09 00:17:10;;;;;;;;;;;;;;;9.87;68.82;98686.69;5038255;28;20051;-60
2023/04/09 00:19:35;;;;;;;;;;;;;;;9.87;68.68;98681.50;5037812;28;20001;-60
2023/04/09 00:22:00;;;;;;;;;;;;;;;9.53;70.30;98681.94;5024384;28;19940;-60
2023/04/09 00:24:26;;;;;;;;;;;;;;;9.37;71.65;98686.84;5020356;28;20042;-60
2023/04/09 00:26:53;;;;;;;;;;;;;;;9.42;71.31;98687.25;5036781;28;19928;-60
2023/04/09 00:29:21;;;;;;;;;;;;;;;9.47;71.07;98677.28;5038966;28;19931;-60
2023/04/09 00:31:46;;;;;;;;;;;;;;;9.45;71.39;98678.38;5037664;28;19921;-60
2023/04/09 00:34:11;;;;;;;;;;;;;;;9.53;71.01;98675.94;5036058;28;19946;-60
2023/04/09 00:36:37;;;;;;;;;;;;;;;9.60;70.63;98682.19;5038313;28;19976;-60
2023/04/09 00:39:02;;;;;;;;;;;;;;;9.51;71.27;98681.25;5035814;28;19925;-60
2023/04/09 00:41:27;;;;;;;;;;;;;;;9.54;70.83;98683.56;5056067;28;19935;-60
2023/04/09 00:43:58;;;;;;;;;;;;;;;9.45;71.65;98688.75;5019732;28;20761;-61
2023/04/09 00:46:23;;;;;;;;;;;;;;;9.37;71.77;98686.84;5038803;28;19925;-60
2023/04/09 00:48:48;;;;;;;;;;;;;;;9.32;72.52;98683.81;5035706;28;19932;-60
2023/04/09 00:51:14;;;;;;;;;;;;;;;9.25;72.33;98693.91;5037741;28;20405;-60
2023/04/09 00:53:42;;;;;;;;;;;;;;;9.21;72.80;98684.75;5041152;28;20011;-60
2023/04/09 00:56:10;;;;;;;;;;;;;;;9.14;73.50;98684.47;5026548;28;19979;-60
2023/04/09 00:58:35;;;;;;;;;;;;;;;9.10;73.87;98684.88;5028839;28;19939;-61
2023/04/09 01:01:01;;;;;;;;;;;;;;;9.12;74.61;98688.97;5040100;28;20403;-60
2023/04/09 01:03:26;;;;;;;;;;;;;;;9.12;74.23;98695.94;5057604;28;19937;-60
2023/04/09 01:06:00;;;;;;;;;;;;;;;9.12;74.40;98690.75;5039751;28;19931;-61
2023/04/09 01:08:39;;;;;;;;;;;;;;;9.10;74.50;98690.06;5036405;28;19920;-60
2023/04/09 01:11:07;;;;;;;;;;;;;;;9.04;74.96;98694.03;5057004;28;19924;-59
2023/04/09 01:13:34;;;;;;;;;;;;;;;9.04;74.21;98694.03;5025787;28;20387;-60
2023/04/09 01:16:00;;;;;;;;;;;;;;;8.94;75.11;98691.38;5047000;28;19920;-60
2023/04/09 01:18:25;;;;;;;;;;;;;;;8.78;75.30;98694.50;5024794;28;19925;-60
2023/04/09 01:20:56;;;;;;;;;;;;;;;8.91;74.91;98691.66;5040959;28;19924;-60
2023/04/09 01:26:27;;;;;;;;;;;;;;;8.93;74.45;98687.16;5031646;28;19924;-60
2023/04/09 01:28:53;;;;;;;;;;;;;;;8.93;74.81;98689.75;5042587;28;21468;-60
2023/04/09 01:31:19;;;;;;;;;;;;;;;8.88;75.37;98693.69;5023920;28;19932;-60
2023/04/09 01:33:44;;;;;;;;;;;;;;;8.81;75.32;98693.41;5042208;28;19924;-60
2023/04/09 01:36:09;;;;;;;;;;;;;;;8.60;75.58;98689.09;5040253;28;19921;-60
2023/04/09 01:38:38;;;;;;;;;;;;;;;8.55;76.41;98691.25;5043109;28;19929;-60
2023/04/09 01:41:06;;;;;;;;;;;;;;;8.58;76.06;98697.94;5040237;28;19931;-60
2023/04/09 01:43:32;;;;;;;;;;;;;;;8.53;76.32;98698.34;5057210;28;19954;-60
2023/04/09 01:45:58;;;;;;;;;;;;;;;8.58;76.14;98706.56;5039239;28;19928;-60
2023/04/09 01:48:23;;;;;;;;;;;;;;;8.53;76.55;98705.31;5038828;28;19936;-60
2023/04/09 01:50:51;;;;;;;;;;;;;;;8.54;76.46;98707.78;5041917;28;19975;-60
2023/04/09 01:53:16;;;;;;;;;;;;;;;8.44;76.81;98701.72;5026654;28;20445;-60
2023/04/09 01:55:41;;;;;;;;;;;;;;;8.35;76.95;98707.63;5056560;28;20013;-60
2023/04/09 01:58:10;;;;;;;;;;;;;;;8.26;77.66;98706.63;5023788;28;19963;-61
2023/04/09 02:00:37;;;;;;;;;;;;;;;8.28;78.34;98702.94;5037596;28;19936;-61
2023/04/09 02:03:09;;;;;;;;;;;;;;;8.22;77.81;98698.28;5038566;28;19990;-60
2023/04/09 02:05:40;;;;;;;;;;;;;;;8.31;78.33;98701.06;5037189;28;19929;-60
2023/04/09 02:08:06;;;;;;;;;;;;;;;8.28;77.97;98702.94;5041214;28;20019;-60
2023/04/09 02:10:31;;;;;;;;;;;;;;;8.24;77.91;98708.53;5036025;28;19939;-60
2023/04/09 02:12:57;;;;;;;;;;;;;;;8.14;78.01;98698.13;5038352;28;20067;-61
2023/04/09 02:15:22;;;;;;;;;;;;;;;8.05;78.19;98698.88;5052609;28;20426;-60
2023/04/09 02:17:47;;;;;;;;;;;;;;;8.13;78.90;98695.66;5038607;28;19929;-61
2023/04/09 02:20:16;;;;;;;;;;;;;;;8.06;78.73;98697.91;5037456;28;19932;-61
2023/04/09 02:22:41;;;;;;;;;;;;;;;8.04;79.11;98702.41;5040788;28;20390;-61
2023/04/09 02:25:07;;;;;;;;;;;;;;;8.03;78.66;98705.91;5042398;28;19960;-61
2023/04/09 02:27:32;;;;;;;;;;;;;;;7.93;79.68;98703.28;5025185;28;19929;-61
2023/04/09 02:29:57;;;;;;;;;;;;;;;7.90;79.93;98698.34;5043130;28;20392;-60
2023/04/09 02:32:23;;;;;;;;;;;;;;;8.00;80.05;98699.25;5025738;28;19924;-61
2023/04/09 02:34:48;;;;;;;;;;;;;;;7.98;80.15;98702.91;5043785;28;20745;-61
2023/04/09 02:37:13;;;;;;;;;;;;;;;7.95;80.78;98703.16;5040537;28;19972;-61
2023/04/09 02:39:43;;;;;;;;;;;;;;;7.76;80.58;98699.47;5025163;28;20376;-60
2023/04/09 02:42:08;;;;;;;;;;;;;;;7.76;81.40;98703.81;5044524;28;19921;-60
2023/04/09 02:44:34;;;;;;;;;;;;;;;7.84;81.68;98710.00;5040684;28;21242;-60
2023/04/09 02:46:59;;;;;;;;;;;;;;;7.81;82.75;98701.69;5049513;28;19970;-60
2023/04/09 02:49:24;;;;;;;;;;;;;;;7.84;83.96;98712.59;5032424;28;19942;-60
2023/04/09 02:51:52;;;;;;;;;;;;;;;7.86;85.05;98710.72;5030959;28;19917;-60
2023/04/09 02:54:17;;;;;;;;;;;;;;;7.95;84.39;98711.72;5027400;28;20276;-60
2023/04/09 02:56:43;;;;;;;;;;;;;;;7.97;84.45;98715.00;5038743;28;19921;-61
2023/04/09 02:59:10;;;;;;;;;;;;;;;8.05;84.49;98707.44;5045617;28;20330;-60
2023/04/09 03:01:35;;;;;;;;;;;;;;;7.95;82.69;98710.91;5022738;28;19921;-60
2023/04/09 03:04:01;;;;;;;;;;;;;;;8.00;82.09;98708.78;5047693;28;20666;-61
2023/04/09 03:06:26;;;;;;;;;;;;;;;7.94;81.06;98712.69;5041579;28;19952;-61
2023/04/09 03:08:51;;;;;;;;;;;;;;;7.84;81.17;98702.25;5045330;28;20360;-61
2023/04/09 03:11:17;;;;;;;;;;;;;;;7.63;81.79;98712.59;5028470;28;19961;-61
2023/04/09 03:13:42;;;;;;;;;;;;;;;7.70;82.58;98707.72;5045437;28;19920;-61
2023/04/09 03:16:09;;;;;;;;;;;;;;;7.74;83.07;98710.88;5020174;28;19917;-60
2023/04/09 03:18:34;;;;;;;;;;;;;;;7.79;82.97;98704.38;5061269;28;19917;-61
2023/04/09 03:21:03;;;;;;;;;;;;;;;7.82;83.04;98709.31;5036243;28;20487;-60
2023/04/09 03:23:33;;;;;;;;;;;;;;;7.83;83.15;98699.78;5044607;28;19924;-60
2023/04/09 03:25:59;;;;;;;;;;;;;;;7.75;83.86;98703.00;5044588;28;19943;-61
2023/04/09 03:28:25;;;;;;;;;;;;;;;7.73;83.57;98701.50;5045570;28;19920;-61
2023/04/09 03:30:52;;;;;;;;;;;;;;;7.77;83.36;98702.88;5019551;28;20435;-60
2023/04/09 03:33:18;;;;;;;;;;;;;;;7.80;83.60;98703.44;5041331;28;19944;-60
2023/04/09 03:35:43;;;;;;;;;;;;;;;7.81;84.60;98701.69;5034453;28;20552;-61
2023/04/09 03:38:08;;;;;;;;;;;;;;;7.73;84.42;98701.50;5044864;28;20347;-60
2023/04/09 03:40:36;;;;;;;;;;;;;;;7.70;83.98;98705.97;5034727;28;19917;-60
2023/04/09 03:43:04;;;;;;;;;;;;;;;7.67;84.58;98703.63;5042389;28;19924;-61
2023/04/09 03:45:29;;;;;;;;;;;;;;;7.59;84.80;98705.19;5043885;28;19921;-60
2023/04/09 03:47:54;;;;;;;;;;;;;;;7.53;85.35;98701.31;5027430;28;19917;-60
2023/04/09 03:50:20;;;;;;;;;;;;;;;7.43;85.76;98708.16;5040555;28;19924;-61
2023/04/09 03:52:45;;;;;;;;;;;;;;;7.45;86.46;98709.72;5060445;28;19921;-60
2023/04/09 03:55:10;;;;;;;;;;;;;;;7.45;85.63;98707.13;5043567;28;19952;-61
2023/04/09 03:57:38;;;;;;;;;;;;;;;7.47;nan;98712.19;5023019;28;19921;-60
2023/04/09 04:00:06;;;;;;;;;;;;;;;7.43;86.63;98708.16;5037533;28;19917;-61
2023/04/09 04:02:32;;;;;;;;;;;;;;;7.42;86.82;98709.13;5021106;28;19917;-61
2023/04/09 04:05:00;;;;;;;;;;;;;;;7.33;85.74;98710.69;5043949;28;19948;-60
2023/04/09 04:07:26;;;;;;;;;;;;;;;7.35;85.89;98711.38;5043658;28;19917;-61
2023/04/09 04:09:51;;;;;;;;;;;;;;;7.06;86.78;98687.81;5021138;28;20292;-61
2023/04/09 04:12:16;;;;;;;;;;;;;;;7.39;86.37;98722.28;5037230;28;19921;-61
2023/04/09 04:14:41;;;;;;;;;;;;;;;7.29;86.47;98729.97;5062960;28;20586;-60
2023/04/09 04:17:07;;;;;;;;;;;;;;;7.28;86.02;98731.75;5044853;28;19988;-60
2023/04/09 04:19:32;;;;;;;;;;;;;;;7.32;85.92;98732.31;5047271;28;19970;-61
2023/04/09 04:21:59;;;;;;;;;;;;;;;7.11;85.81;98735.63;5047451;28;19913;-61
2023/04/09 04:24:25;;;;;;;;;;;;;;;6.90;87.23;98740.72;5047742;28;20125;-61
2023/04/09 04:26:50;;;;;;;;;;;;;;;7.09;85.79;98741.88;5044264;28;20379;-61
2023/04/09 04:29:15;;;;;;;;;;;;;;;6.91;86.60;98750.09;5047525;28;20007;-60
2023/04/09 04:31:41;;;;;;;;;;;;;;;6.84;87.15;98754.09;5047679;28;19916;-60
2023/04/09 04:34:06;;;;;;;;;;;;;;;6.94;87.45;98743.88;5030827;28;19924;-60
2023/04/09 04:36:34;;;;;;;;;;;;;;;6.97;87.14;98751.38;5047538;28;19929;-60
2023/04/09 04:38:59;;;;;;;;;;;;;;;7.11;87.35;98745.16;5031558;28;19920;-60
2023/04/09 04:41:24;;;;;;;;;;;;;;;7.11;86.82;98747.75;5047262;28;20407;-60
2023/04/09 04:43:50;;;;;;;;;;;;;;;7.12;86.96;98749.41;5031086;28;20011;-60
2023/04/09 04:46:15;;;;;;;;;;;;;;;7.04;86.75;98752.56;5046673;28;19925;-60
2023/04/09 04:48:40;;;;;;;;;;;;;;;6.98;87.32;98749.66;5043732;28;20588;-60
2023/04/09 04:51:05;;;;;;;;;;;;;;;7.08;86.74;98747.97;5045447;28;19921;-60
2023/04/09 04:53:31;;;;;;;;;;;;;;;7.16;86.07;98750.81;5024221;28;20138;-61
2023/04/09 04:55:56;;;;;;;;;;;;;;;7.16;85.64;98755.97;5041625;28;19921;-60
2023/04/09 04:58:21;;;;;;;;;;;;;;;7.19;84.92;98744.56;5060347;28;19929;-60
2023/04/09 05:00:46;;;;;;;;;;;;;;;7.12;85.92;98752.81;5040226;28;19987;-60
2023/04/09 05:03:12;;;;;;;;;;;;;;;7.14;86.42;98757.88;5042727;28;20031;-60
2023/04/09 05:05:37;;;;;;;;;;;;;;;7.15;85.87;98763.84;5044991;28;20002;-60
2023/04/09 05:08:02;;;;;;;;;;;;;;;7.14;86.27;98768.19;5044115;28;20011;-61
2023/04/09 05:10:28;;;;;;;;;;;;;;;7.03;86.81;98766.44;5034512;28;20287;-60
2023/04/09 05:12:53;;;;;;;;;;;;;;;6.92;87.04;98761.28;5037320;28;20371;-60
2023/04/09 05:15:21;;;;;;;;;;;;;;;7.03;86.53;98766.44;5041396;28;19936;-61
2023/04/09 05:17:46;;;;;;;;;;;;;;;7.07;85.90;98773.03;5044510;28;19971;-60
2023/04/09 05:20:12;;;;;;;;;;;;;;;7.07;85.83;98777.38;5044981;28;19929;-60
2023/04/09 05:22:37;;;;;;;;;;;;;;;7.03;87.10;98781.97;5040476;28;20300;-60
2023/04/09 05:25:02;;;;;;;;;;;;;;;6.99;87.56;98787.47;5042477;28;20540;-61
2023/04/09 05:27:28;;;;;;;;;;;;;;;6.99;87.35;98790.06;5043602;28;19921;-60
2023/04/09 05:29:53;;;;;;;;;;;;;;;6.99;87.68;98785.72;5042908;28;20102;-60
2023/04/09 05:32:21;;;;;;;;;;;;;;;6.88;88.37;98788.28;5043648;28;20359;-60
2023/04/09 05:34:46;;;;;;;;;;;;;;;6.72;88.04;98783.47;5044103;28;20661;-60
2023/04/09 05:37:14;;;;;;;;;;;;;;;6.66;88.06;98787.34;5036824;28;19965;-60
2023/04/09 05:39:39;;;;;;;;;;;;;;;6.75;88.48;98796.16;5026740;28;19951;-60
2023/04/09 05:42:04;;;;;;;;;;;;;;;6.80;87.85;98794.03;5042986;28;20387;-60
2023/04/09 05:44:30;;;;;;;;;;;;;;;6.85;87.29;98799.69;5047317;28;20564;-60
2023/04/09 05:46:57;;;;;;;;;;;;;;;6.98;86.58;98807.34;5042349;28;19928;-60
2023/04/09 05:49:23;;;;;;;;;;;;;;;6.85;88.13;98802.28;5038231;28;19924;-60
2023/04/09 05:51:48;;;;;;;;;;;;;;;6.99;88.04;98806.41;5027043;28;19917;-60
2023/04/09 05:54:14;;;;;;;;;;;;;;;7.00;87.63;98812.41;5042806;28;20429;-60
2023/04/09 05:56:41;;;;;;;;;;;;;;;6.97;87.45;98804.88;5026391;28;19968;-60
2023/04/09 05:59:07;;;;;;;;;;;;;;;7.05;87.75;98816.28;5026031;28;19925;-60
2023/04/09 06:01:35;;;;;;;;;;;;;;;6.88;88.42;98806.38;5042740;28;19947;-60
2023/04/09 06:04:00;;;;;;;;;;;;;;;7.00;88.10;98807.22;5042840;28;19978;-59
2023/04/09 06:06:25;;;;;;;;;;;;;;;7.08;88.44;98803.13;5026595;28;19921;-60
2023/04/09 06:08:53;;;;;;;;;;;;;;;7.08;88.43;98807.44;5025916;28;20626;-60
2023/04/09 06:11:20;;;;;;;;;;;;;;;7.13;88.33;98811.31;5035789;28;19990;-60
2023/04/09 06:13:45;;;;;;;;;;;;;;;7.17;88.54;98806.75;5022800;28;20483;-60
2023/04/09 06:16:10;;;;;;;;;;;;;;;7.16;89.44;98812.06;5035354;28;19916;-60
2023/04/09 06:18:36;;;;;;;;;;;;;;;7.25;88.80;98816.50;5043399;28;20522;-60
2023/04/09 06:21:02;;;;;;;;;;;;;;;7.34;88.75;98818.38;5031964;28;19971;-60
2023/04/09 06:23:27;;;;;;;;;;;;;;;7.36;88.39;98810.50;5043312;28;19931;-60
2023/04/09 06:25:52;;;;;;;;;;;;;;;7.20;88.55;98810.88;5022575;28;19917;-60
2023/04/09 06:28:18;;;;;;;;;;;;;;;7.25;88.92;98821.69;5024470;28;19928;-60
2023/04/09 06:30:43;;;;;;;;;;;;;;;7.37;88.18;98812.97;5025635;28;20366;-60
2023/04/09 06:33:08;;;;;;;;;;;;;;;7.39;89.02;98821.44;5042875;28;19920;-60
2023/04/09 06:35:36;;;;;;;;;;;;;;;7.34;88.19;98823.56;5017433;28;19929;-60
2023/04/09 06:38:02;;;;;;;;;;;;;;;7.39;89.52;98816.28;5019573;28;19932;-60
2023/04/09 06:40:27;;;;;;;;;;;;;;;7.39;89.62;98815.44;5025913;28;20431;-60
2023/04/09 06:42:52;;;;;;;;;;;;;;;7.39;90.29;98816.28;5042378;28;19959;-60
2023/04/09 06:45:20;;;;;;;;;;;;;;;7.43;90.09;98820.25;5039597;28;19955;-60
2023/04/09 06:47:48;;;;;;;;;;;;;;;7.40;89.90;98817.09;5031360;28;19924;-60
2023/04/09 06:50:13;;;;;;;;;;;;;;;7.34;90.08;98820.97;5043087;28;19991;-60
2023/04/09 06:52:38;;;;;;;;;;;;;;;7.41;89.75;98823.88;5024993;28;19920;-60
2023/04/09 06:55:04;;;;;;;;;;;;;;;7.34;90.29;98826.16;5034801;28;20003;-60
2023/04/09 06:57:30;;;;;;;;;;;;;;;7.49;90.11;98816.38;5041168;28;20011;-60
2023/04/09 06:59:55;;;;;;;;;;;;;;;7.60;89.89;98821.53;5041697;28;19967;-60
2023/04/09 07:02:20;;;;;;;;;;;;;;;7.63;89.74;98828.22;5024569;28;19928;-60
2023/04/09 07:04:48;;;;;;;;;;;;;;;7.65;90.43;98824.56;5037837;28;19998;-60
2023/04/09 07:07:13;;;;;;;;;;;;;;;7.67;90.37;98832.22;5055720;28;19920;-60
2023/04/09 07:09:40;;;;;;;;;;;;;;;7.62;91.53;98831.75;5042647;28;19975;-60
2023/04/09 07:12:06;;;;;;;;;;;;;;;7.66;91.05;98833.16;5025028;28;20351;-60
2023/04/09 07:14:31;;;;;;;;;;;;;;;7.67;91.22;98837.41;5041696;28;19958;-60
2023/04/09 07:16:56;;;;;;;;;;;;;;;7.59;92.31;98835.38;5041401;28;20363;-60
2023/04/09 07:19:21;;;;;;;;;;;;;;;7.58;92.25;98833.75;5042690;28;19924;-60
2023/04/09 07:21:47;;;;;;;;;;;;;;;7.73;91.32;98834.31;5040960;28;19943;-60
2023/04/09 07:24:12;;;;;;;;;;;;;;;7.82;91.67;98828.41;5041756;28;19974;-62
2023/04/09 07:26:37;;;;;;;;;;;;;;;7.84;91.02;98823.13;5040744;28;20294;-60
2023/04/09 07:29:03;;;;;;;;;;;;;;;8.03;91.21;98832.81;5035276;28;19924;-60
2023/04/09 07:31:28;;;;;;;;;;;;;;;8.09;89.20;98824.56;5040450;28;19924;-60
2023/04/09 07:33:56;;;;;;;;;;;;;;;8.05;89.32;98829.16;5042468;28;20610;-60
2023/04/09 07:36:21;;;;;;;;;;;;;;;8.13;89.57;98827.72;5018316;28;19925;-60
2023/04/09 07:38:47;;;;;;;;;;;;;;;8.15;90.69;98828.44;5033699;28;20473;-60
2023/04/09 07:41:12;;;;;;;;;;;;;;;8.12;91.68;98826.88;5035849;28;19978;-61
2023/04/09 07:43:38;;;;;;;;;;;;;;;8.04;91.04;98830.09;5041295;28;19970;-60
2023/04/09 07:46:05;;;;;;;;;;;;;;;8.23;90.68;98823.44;5048688;28;19916;-60
2023/04/09 07:48:31;;;;;;;;;;;;;;;8.25;91.37;98834.50;5040750;28;19927;-60
2023/04/09 07:50:56;;;;;;;;;;;;;;;7.80;90.87;98759.59;5022664;28;19921;-60
2023/04/09 07:53:21;;;;;;;;;;;;;;;8.34;89.99;98840.69;5038177;28;19929;-60
2023/04/09 07:55:47;;;;;;;;;;;;;;;8.59;88.63;98840.38;5040635;28;19929;-60
2023/04/09 07:58:14;;;;;;;;;;;;;;;8.63;88.97;98841.78;5036065;28;20289;-61
2023/04/09 08:00:39;;;;;;;;;;;;;;;8.72;88.65;98842.75;5056644;28;19936;-60
2023/04/09 08:03:08;;;;;;;;;;;;;;;8.75;88.13;98839.94;5040368;28;19931;-60
2023/04/09 08:05:33;;;;;;;;;;;;;;;8.83;87.32;98841.88;5039180;28;19917;-61
2023/04/09 08:07:59;;;;;;;;;;;;;;;8.90;86.66;98829.22;5039309;28;20397;-60
2023/04/09 08:10:26;;;;;;;;;;;;;;;8.96;86.98;98826.97;5016427;28;19956;-60
2023/04/09 08:12:52;;;;;;;;;;;;;;;8.96;86.85;98832.13;5024358;28;19924;-61
2023/04/09 08:15:17;;;;;;;;;;;;;;;9.03;nan;98828.09;5042125;28;19929;-60
2023/04/09 08:17:45;;;;;;;;;;;;;;;9.01;86.34;98829.16;5019188;28;19921;-61
2023/04/09 08:20:11;;;;;;;;;;;;;;;9.10;85.12;98836.16;5032027;28;19921;-61
2023/04/09 08:22:36;;;;;;;;;;;;;;;9.07;85.71;98823.44;5033419;28;19921;-60
2023/04/09 08:25:01;;;;;;;;;;;;;;;8.99;85.19;98825.88;5039107;28;20463;-60
2023/04/09 08:27:26;;;;;;;;;;;;;;;8.90;84.56;98829.22;5032801;28;19928;-60
2023/04/09 08:29:52;;;;;;;;;;;;;;;8.82;83.79;98822.09;5039718;28;19926;-60
2023/04/09 08:32:20;;;;;;;;;;;;;;;8.85;84.55;98833.03;5019745;28;19927;-60
2023/04/09 08:34:45;;;;;;;;;;;;;;;9.01;84.12;98829.16;5038649;28;19921;-60
2023/04/09 08:37:13;;;;;;;;;;;;;;;9.07;83.47;98836.41;5039630;28;19928;-60
2023/04/09 08:39:38;;;;;;;;;;;;;;;9.11;84.62;98818.81;5033435;28;19982;-60
2023/04/09 08:42:04;;;;;;;;;;;;;;;9.20;84.78;98823.25;5033313;28;19920;-61
2023/04/09 08:44:29;;;;;;;;;;;;;;;9.37;84.29;98829.56;5039270;28;19921;-59
2023/04/09 08:46:55;;;;;;;;;;;;;;;9.92;75.91;98831.75;5039011;28;19937;-59
2023/04/09 08:49:20;;;;;;;;;;;;;;;10.34;75.21;98826.31;5038897;28;20489;-59
2023/04/09 08:51:46;;;;;;;;;;;;;;;10.63;71.68;98831.47;5038989;28;19921;-59
2023/04/09 08:54:14;;;;;;;;;;;;;;;10.92;68.96;98828.81;5045396;28;19955;-59
2023/04/09 08:56:39;;;;;;;;;;;;;;;11.18;67.79;98824.75;5036466;28;19936;-59
2023/04/09 08:59:05;;;;;;;;;;;;;;;11.44;66.35;98824.91;5035505;28;19924;-59
2023/04/09 09:01:30;;;;;;;;;;;;;;;11.58;67.39;98821.81;5022916;28;19925;-59
2023/04/09 09:03:56;;;;;;;;;;;;;;;11.73;66.21;98822.94;5038793;28;20633;-59
2023/04/09 09:06:22;;;;;;;;;;;;;;;11.83;64.48;98812.47;5042023;28;19925;-59
2023/04/09 09:09:05;;;;;;;;;;;;;;;11.87;64.14;98824.22;5030098;28;19921;-59
2023/04/09 09:11:30;;;;;;;;;;;;;;;12.04;63.38;98814.81;5038151;28;20865;-59
2023/04/09 09:13:56;;;;;;;;;;;;;;;12.20;62.96;98814.16;5043311;28;19917;-59
2023/04/09 09:16:22;;;;;;;;;;;;;;;12.09;64.66;98812.59;5027234;28;20671;-58
2023/04/09 09:18:47;;;;;;;;;;;;;;;12.19;64.81;98809.88;5035230;28;19925;-59
2023/04/09 09:21:15;;;;;;;;;;;;;;;12.00;65.05;98813.47;5042487;28;19920;-59
2023/04/09 09:23:41;;;;;;;;;;;;;;;11.92;65.49;98814.22;5057010;28;19921;-59
2023/04/09 09:26:13;;;;;;;;;;;;;;;11.79;65.56;98807.69;5028126;28;19974;-59
2023/04/09 09:28:41;;;;;;;;;;;;;;;11.78;65.51;98806.06;5045014;28;19928;-58
2023/04/09 09:31:07;;;;;;;;;;;;;;;11.78;65.13;98809.50;5030096;28;19921;-58
2023/04/09 09:33:32;;;;;;;;;;;;;;;11.81;64.44;98806.59;5047395;28;19925;-60
2023/04/09 09:36:02;;;;;;;;;;;;;;;11.80;65.40;98801.53;5045265;28;20468;-58
2023/04/09 09:38:31;;;;;;;;;;;;;;;11.93;65.43;98802.00;5046997;28;19947;-59
2023/04/09 09:40:56;;;;;;;;;;;;;;;12.08;63.82;98795.31;5039395;28;19977;-59
2023/04/09 09:43:21;;;;;;;;;;;;;;;12.14;63.46;98796.50;5044298;28;20396;-58
2023/04/09 09:45:49;;;;;;;;;;;;;;;12.61;61.90;98795.38;5057185;28;19917;-59
2023/04/09 09:48:15;;;;;;;;;;;;;;;12.51;62.13;98790.25;5041083;28;20019;-59
2023/04/09 09:50:41;;;;;;;;;;;;;;;12.36;62.05;98800.44;5058059;28;20055;-59
2023/04/09 09:53:09;;;;;;;;;;;;;;;12.43;61.41;98788.44;5057673;28;19956;-59
2023/04/09 09:55:39;;;;;;;;;;;;;;;12.42;61.65;98789.38;5056427;28;20006;-59
2023/04/09 09:58:10;;;;;;;;;;;;;;;12.43;61.68;98791.03;5025681;28;20075;-59
2023/04/09 10:00:36;;;;;;;;;;;;;;;12.54;60.93;98784.75;5043963;28;19921;-60
2023/04/09 10:03:22;;;;;;;;;;;;;;;12.53;60.31;98783.09;5027608;28;20404;-59
2023/04/09 10:05:47;;;;;;;;;;;;;;;12.72;60.97;98783.88;5039917;28;19967;-59
2023/04/09 10:08:12;;;;;;;;;;;;;;;12.78;60.50;98780.66;5024602;28;19921;-59
2023/04/09 10:10:38;;;;;;;;;;;;;;;12.79;60.46;98782.28;5023626;28;20223;-59
2023/04/09 10:13:04;;;;;;;;;;;;;;;12.61;60.40;98782.34;5024248;28;19928;-59
2023/04/09 10:15:29;;;;;;;;;;;;;;;12.64;60.46;98775.03;5024985;28;19921;-59
2023/04/09 10:17:55;;;;;;;;;;;;;;;12.60;60.33;98781.53;5025060;28;19940;-58
2023/04/09 10:20:23;;;;;;;;;;;;;;;12.76;60.57;98775.59;5039827;28;19925;-59
2023/04/09 10:22:49;;;;;;;;;;;;;;;12.93;60.02;98773.06;5045640;28;19966;-59
2023/04/09 10:25:14;;;;;;;;;;;;;;;12.93;59.19;98768.66;5029121;28;20299;-59
2023/04/09 10:27:41;;;;;;;;;;;;;;;12.98;59.48;98771.63;5028604;28;19968;-59
2023/04/09 10:30:09;;;;;;;;;;;;;;;13.12;58.37;98764.16;5045253;28;19920;-59
2023/04/09 10:32:35;;;;;;;;;;;;;;;13.12;57.86;98759.75;5028760;28;20082;-59
2023/04/09 10:35:03;;;;;;;;;;;;;;;13.10;58.71;98760.91;5028798;28;19997;-59
2023/04/09 10:37:28;;;;;;;;;;;;;;;13.46;55.95;98756.31;5061664;28;19921;-59
2023/04/09 10:39:55;;;;;;;;;;;;;;;13.58;54.79;98747.22;5045137;28;19928;-59
2023/04/09 10:42:26;;;;;;;;;;;;;;;13.60;55.70;98747.88;5047224;28;19921;-59
2023/04/09 10:45:08;;;;;;;;;;;;;;;13.61;55.98;98748.66;5046713;28;19951;-60
2023/04/09 10:47:34;;;;;;;;;;;;;;;13.60;55.31;98742.63;5044845;28;19917;-59
2023/04/09 10:50:17;;;;;;;;;;;;;;;13.60;55.13;98736.59;5028093;28;19921;-59
2023/04/09 10:52:45;;;;;;;;;;;;;;;13.58;53.83;98738.53;5044886;28;19925;-58
2023/04/09 10:55:29;;;;;;;;;;;;;;;13.76;52.88;98739.25;5045056;28;19932;-59
2023/04/09 10:57:54;;;;;;;;;;;;;;;13.78;52.86;98728.59;5045975;28;19929;-60
2023/04/09 11:00:20;;;;;;;;;;;;;;;13.95;52.90;98727.63;5062260;28;19982;-59
2023/04/09 11:02:57;;;;;;;;;;;;;;;13.82;53.32;98717.66;5045996;28;19920;-59
2023/04/09 11:05:22;;;;;;;;;;;;;;;13.93;53.73;98720.94;5044822;28;19960;-59
2023/04/09 11:08:02;;;;;;;;;;;;;;;14.02;53.11;98719.97;5044420;28;19952;-59
2023/04/09 11:10:28;;;;;;;;;;;;;;;14.13;51.33;98709.16;5044752;28;20461;-59
2023/04/09 11:12:53;;;;;;;;;;;;;;;14.06;53.28;98713.41;5044691;28;19920;-58
2023/04/09 11:15:19;;;;;;;;;;;;;;;14.08;53.50;98705.41;5027864;28;19921;-59
2023/04/09 11:17:45;;;;;;;;;;;;;;;14.07;54.62;98703.78;5045931;28;19921;-58
2023/04/09 11:20:11;;;;;;;;;;;;;;;14.21;52.57;98703.09;5043000;28;20586;-59
2023/04/09 11:22:36;;;;;;;;;;;;;;;14.28;52.18;98701.47;5043790;28;19925;-59
2023/04/09 11:25:04;;;;;;;;;;;;;;;14.39;51.57;98697.69;5044483;28;20047;-59
2023/04/09 11:27:30;;;;;;;;;;;;;;;14.50;50.36;98704.38;5060654;28;20079;-59
2023/04/09 11:29:55;;;;;;;;;;;;;;;14.60;51.13;98699.78;5044385;28;20386;-59
2023/04/09 11:32:20;;;;;;;;;;;;;;;14.43;51.45;98694.56;5043681;28;20012;-59
2023/04/09 11:34:46;;;;;;;;;;;;;;;14.27;51.27;98686.75;5044224;28;20026;-59
2023/04/09 11:37:15;;;;;;;;;;;;;;;14.43;52.01;98686.69;5040535;28;19917;-59
2023/04/09 11:39:42;;;;;;;;;;;;;;;14.67;51.95;98690.25;5024279;28;19929;-59
2023/04/09 11:42:12;;;;;;;;;;;;;;;14.67;52.05;98687.66;5023610;28;19921;-59
2023/04/09 11:44:37;;;;;;;;;;;;;;;14.67;51.01;98692.88;5040659;28;20323;-59
2023/04/09 11:47:03;;;;;;;;;;;;;;;14.68;51.04;98684.06;5025289;28;19924;-59
2023/04/09 11:49:28;;;;;;;;;;;;;;;14.64;50.41;98688.00;5031008;28;20008;-59
2023/04/09 11:51:53;;;;;;;;;;;;;;;14.62;50.78;98679.50;5044020;28;19968;-59
2023/04/09 11:54:19;;;;;;;;;;;;;;;14.72;50.43;98676.69;5026935;28;19921;-59
2023/04/09 11:56:44;;;;;;;;;;;;;;;14.68;49.05;98681.44;5023363;28;19925;-59
2023/04/09 11:59:09;;;;;;;;;;;;;;;14.60;50.49;98678.84;5024496;28;20339;-59
2023/04/09 12:01:37;;;;;;;;;;;;;;;14.72;48.99;98668.84;5022253;28;19935;-59
2023/04/09 12:04:04;;;;;;;;;;;;;;;14.65;49.77;98675.72;5043921;28;19968;-59
2023/04/09 12:06:30;;;;;;;;;;;;;;;14.64;49.70;98680.16;5026981;28;20442;-59
2023/04/09 12:08:58;;;;;;;;;;;;;;;14.66;47.80;98669.50;5027468;28;20047;-58
2023/04/09 12:11:27;;;;;;;;;;;;;;;14.67;48.65;98663.28;5027126;28;19920;-59
2023/04/09 12:14:04;;;;;;;;;;;;;;;14.74;48.98;98672.09;5043507;28;20019;-58
2023/04/09 12:16:33;;;;;;;;;;;;;;;14.86;48.69;98648.97;5043851;28;19982;-58
2023/04/09 12:19:02;;;;;;;;;;;;;;;14.94;48.93;98654.97;5045046;28;20035;-59
2023/04/09 12:21:44;;;;;;;;;;;;;;;14.99;47.95;98652.66;5027291;28;19924;-59
2023/04/09 12:24:09;;;;;;;;;;;;;;;15.02;47.59;98655.94;5043760;28;20425;-58
2023/04/09 12:26:37;;;;;;;;;;;;;;;15.04;47.75;98656.56;5027167;28;19967;-58
2023/04/09 12:29:02;;;;;;;;;;;;;;;15.20;46.79;98656.47;5026927;28;19927;-59
2023/04/09 12:31:27;;;;;;;;;;;;;;;15.23;47.17;98655.31;5043105;28;19921;-59
2023/04/09 12:33:53;;;;;;;;;;;;;;;15.30;46.12;98651.84;5045117;28;19925;-59
2023/04/09 12:36:18;;;;;;;;;;;;;;;15.17;46.26;98646.38;5050902;28;19921;-59
2023/04/09 12:38:43;;;;;;;;;;;;;;;14.99;46.55;98644.00;5050572;28;20669;-59
2023/04/09 12:41:08;;;;;;;;;;;;;;;15.20;46.93;98635.50;5049081;28;19921;-59
2023/04/09 12:43:34;;;;;;;;;;;;;;;15.25;46.82;98635.81;5032563;28;19944;-58
2023/04/09 12:46:01;;;;;;;;;;;;;;;15.26;45.96;98629.59;5032417;28;19964;-59
2023/04/09 12:48:29;;;;;;;;;;;;;;;15.51;45.91;98638.06;5049439;28;19928;-59
2023/04/09 12:50:57;;;;;;;;;;;;;;;15.49;44.99;98634.81;5048923;28;19921;-58